createdAt,value
2018-07-30T00:00:07.234Z,18.30
2018-07-30T00:02:43.325Z,18.20
2018-07-30T00:05:12.189Z,18.20
2018-07-30T00:07:41.070Z,18.20
2018-07-30T00:10:09.680Z,18.10
2018-07-30T00:12:38.640Z,18.10
2018-07-30T00:15:07.230Z,18.10
2018-07-30T00:17:35.818Z,18.00
2018-07-30T00:20:05.020Z,18.00
2018-07-30T00:22:33.788Z,17.90
2018-07-30T00:25:02.291Z,17.90
2018-07-30T00:27:30.818Z,17.80
2018-07-30T00:29:59.418Z,17.80
2018-07-30T00:32:27.916Z,17.70
2018-07-30T00:34:57.436Z,17.70
2018-07-30T00:37:25.944Z,17.60
2018-07-30T00:39:54.563Z,17.60
2018-07-30T00:42:23.152Z,17.60
2018-07-30T00:47:20.026Z,17.60
2018-07-30T00:49:48.613Z,17.50
2018-07-30T00:52:17.228Z,17.50
2018-07-30T00:54:45.812Z,17.50
2018-07-30T00:57:14.508Z,17.40
2018-07-30T00:59:43.195Z,17.40
2018-07-30T01:02:12.014Z,17.30
2018-07-30T01:07:09.308Z,17.30
2018-07-30T01:09:37.908Z,17.30
2018-07-30T01:12:06.469Z,17.20
2018-07-30T01:14:35.094Z,17.20
2018-07-30T01:17:03.637Z,17.20
2018-07-30T01:19:32.252Z,17.10
2018-07-30T01:22:00.908Z,17.10
2018-07-30T01:24:29.649Z,17.10
2018-07-30T01:26:58.199Z,17.10
2018-07-30T01:29:26.757Z,17.00
2018-07-30T01:31:55.379Z,17.00
2018-07-30T01:34:23.899Z,17.00
2018-07-30T01:36:52.455Z,17.00
2018-07-30T01:39:20.983Z,17.00
2018-07-30T01:41:49.595Z,17.00
2018-07-30T01:44:18.171Z,17.00
2018-07-30T01:46:46.801Z,17.00
2018-07-30T01:49:15.357Z,17.00
2018-07-30T01:51:43.913Z,17.00
2018-07-30T01:54:12.570Z,17.00
2018-07-30T01:56:41.153Z,16.90
2018-07-30T01:59:09.753Z,16.90
2018-07-30T02:01:38.435Z,16.90
2018-07-30T02:04:07.278Z,16.90
2018-07-30T02:06:35.929Z,16.80
2018-07-30T02:09:07.675Z,16.80
2018-07-30T02:11:36.191Z,16.80
2018-07-30T02:14:05.374Z,16.80
2018-07-30T02:16:33.965Z,16.70
2018-07-30T02:19:02.647Z,16.70
2018-07-30T02:21:31.788Z,16.70
2018-07-30T02:24:00.366Z,16.70
2018-07-30T02:26:28.949Z,16.60
2018-07-30T02:28:57.598Z,16.60
2018-07-30T02:31:26.171Z,16.60
2018-07-30T02:33:55.087Z,16.60
2018-07-30T02:36:23.768Z,16.60
2018-07-30T02:38:52.390Z,16.50
2018-07-30T02:41:21.752Z,16.50
2018-07-30T02:43:50.461Z,16.50
2018-07-30T02:46:19.092Z,16.50
2018-07-30T02:48:47.739Z,16.50
2018-07-30T02:51:16.490Z,16.50
2018-07-30T02:53:45.162Z,16.40
2018-07-30T02:56:13.752Z,16.40
2018-07-30T02:58:42.419Z,16.50
2018-07-30T03:01:11.080Z,16.50
2018-07-30T03:03:40.122Z,16.50
2018-07-30T03:06:08.795Z,16.50
2018-07-30T03:08:37.386Z,16.50
2018-07-30T03:11:06.017Z,16.50
2018-07-30T03:13:35.168Z,16.40
2018-07-30T03:16:03.754Z,16.40
2018-07-30T03:18:32.438Z,16.40
2018-07-30T03:21:01.000Z,16.30
2018-07-30T03:23:29.693Z,16.30
2018-07-30T03:25:58.268Z,16.30
2018-07-30T03:28:26.868Z,16.20
2018-07-30T03:30:55.563Z,16.20
2018-07-30T03:33:24.276Z,16.20
2018-07-30T03:35:52.821Z,16.20
2018-07-30T03:38:23.031Z,16.20
2018-07-30T03:40:51.586Z,16.20
2018-07-30T03:43:20.334Z,16.20
2018-07-30T03:45:48.986Z,16.20
2018-07-30T03:48:17.571Z,16.20
2018-07-30T03:50:46.084Z,16.20
2018-07-30T03:53:14.637Z,16.20
2018-07-30T03:55:43.224Z,16.20
2018-07-30T03:58:12.375Z,16.20
2018-07-30T04:00:40.915Z,16.20
2018-07-30T04:03:09.494Z,16.10
2018-07-30T04:05:38.245Z,16.20
2018-07-30T04:08:06.864Z,16.20
2018-07-30T04:10:35.350Z,16.20
2018-07-30T04:13:03.936Z,16.20
2018-07-30T04:15:32.469Z,16.20
2018-07-30T04:18:01.067Z,16.10
2018-07-30T04:20:29.651Z,16.10
2018-07-30T04:22:58.279Z,16.10
2018-07-30T04:25:26.820Z,16.20
2018-07-30T04:27:56.223Z,16.20
2018-07-30T04:30:25.423Z,16.20
2018-07-30T04:32:54.095Z,16.20
2018-07-30T04:35:22.881Z,16.30
2018-07-30T04:37:53.344Z,16.30
2018-07-30T04:45:18.677Z,16.40
2018-07-30T04:47:49.610Z,16.50
2018-07-30T04:50:18.295Z,16.60
2018-07-30T04:52:47.329Z,16.70
2018-07-30T04:55:16.037Z,16.80
2018-07-30T04:57:44.709Z,16.90
2018-07-30T05:00:14.753Z,17.10
2018-07-30T05:02:43.457Z,17.10
2018-07-30T05:05:12.067Z,17.30
2018-07-30T05:07:40.579Z,17.40
2018-07-30T05:10:09.182Z,17.50
2018-07-30T05:12:37.691Z,17.60
2018-07-30T05:17:34.609Z,17.90
2018-07-30T05:20:03.340Z,18.00
2018-07-30T05:22:34.413Z,18.10
2018-07-30T05:25:03.153Z,18.10
2018-07-30T05:27:32.571Z,18.00
2018-07-30T05:30:01.773Z,18.10
2018-07-30T05:32:31.055Z,18.10
2018-07-30T05:35:00.735Z,18.20
2018-07-30T05:37:29.807Z,18.20
2018-07-30T05:42:54.216Z,18.40
2018-07-30T05:45:23.178Z,18.50
2018-07-30T05:47:52.009Z,18.60
2018-07-30T05:50:20.688Z,18.70
2018-07-30T05:52:49.273Z,18.90
2018-07-30T05:55:17.772Z,19.00
2018-07-30T05:57:46.589Z,19.10
2018-07-30T06:00:15.331Z,19.20
2018-07-30T06:02:44.045Z,19.30
2018-07-30T06:05:12.598Z,19.30
2018-07-30T06:07:41.928Z,19.40
2018-07-30T06:10:10.445Z,19.60
2018-07-30T06:12:38.992Z,19.70
2018-07-30T06:15:08.568Z,19.80
2018-07-30T06:17:37.334Z,19.90
2018-07-30T06:20:11.516Z,20.00
2018-07-30T06:22:40.426Z,20.10
2018-07-30T06:25:09.076Z,20.30
2018-07-30T06:27:37.660Z,20.40
2018-07-30T06:30:08.055Z,20.50
2018-07-30T06:32:37.094Z,20.60
2018-07-30T06:35:05.865Z,20.70
2018-07-30T06:37:34.432Z,20.80
2018-07-30T06:40:02.982Z,20.90
2018-07-30T06:42:32.306Z,21.00
2018-07-30T06:45:01.448Z,21.10
2018-07-30T06:47:30.150Z,21.30
2018-07-30T06:49:58.643Z,21.50
2018-07-30T06:52:27.184Z,21.60
2018-07-30T06:54:56.501Z,21.70
2018-07-30T06:57:25.077Z,21.90
2018-07-30T07:02:21.953Z,22.40
2018-07-30T07:04:50.496Z,22.60
2018-07-30T07:07:19.083Z,22.90
2018-07-30T07:09:47.696Z,23.20
2018-07-30T07:12:18.110Z,23.60
2018-07-30T07:14:46.685Z,24.00
2018-07-30T07:17:15.267Z,24.30
2018-07-30T07:19:44.324Z,24.70
2018-07-30T07:22:13.385Z,25.10
2018-07-30T07:24:42.144Z,25.60
2018-07-30T07:27:10.738Z,26.10
2018-07-30T07:29:39.543Z,26.80
2018-07-30T07:32:08.207Z,27.50
2018-07-30T07:34:37.205Z,28.10
2018-07-30T07:37:06.086Z,28.30
2018-07-30T07:39:34.743Z,28.80
2018-07-30T07:42:03.340Z,28.90
2018-07-30T07:44:32.289Z,29.40
2018-07-30T07:47:00.827Z,29.80
2018-07-30T07:49:29.527Z,29.60
2018-07-30T07:51:58.427Z,29.90
2018-07-30T07:54:27.015Z,30.50
2018-07-30T07:56:55.611Z,30.80
2018-07-30T07:59:24.152Z,31.00
2018-07-30T08:01:52.941Z,31.40
2018-07-30T08:04:23.380Z,31.70
2018-07-30T08:06:51.962Z,32.00
2018-07-30T08:09:27.279Z,32.30
2018-07-30T08:11:55.847Z,32.80
2018-07-30T08:14:24.537Z,32.70
2018-07-30T08:16:53.282Z,32.70
2018-07-30T08:19:21.975Z,33.10
2018-07-30T08:21:53.110Z,33.70
2018-07-30T08:24:21.819Z,34.00
2018-07-30T08:26:50.859Z,34.00
2018-07-30T08:29:19.406Z,34.30
2018-07-30T08:31:48.040Z,34.50
2018-07-30T08:34:16.933Z,34.50
2018-07-30T08:36:45.510Z,34.40
2018-07-30T08:39:14.658Z,33.90
2018-07-30T08:41:43.150Z,33.70
2018-07-30T08:44:11.834Z,33.90
2018-07-30T08:46:40.504Z,34.30
2018-07-30T08:49:09.060Z,34.90
2018-07-30T08:51:38.588Z,34.90
2018-07-30T08:54:07.387Z,35.10
2018-07-30T08:56:36.766Z,35.40
2018-07-30T08:59:06.286Z,35.70
2018-07-30T09:04:27.115Z,36.60
2018-07-30T09:07:01.873Z,37.00
2018-07-30T09:24:17.923Z,40.70
2018-07-30T09:36:27.221Z,41.70
2018-07-30T09:38:56.486Z,41.20
2018-07-30T09:41:25.134Z,41.70
2018-07-30T09:46:22.159Z,41.50
2018-07-30T09:48:50.820Z,41.70
2018-07-30T09:51:19.419Z,42.00
2018-07-30T09:53:48.198Z,41.60
2018-07-30T09:56:16.929Z,42.00
2018-07-30T09:58:45.448Z,42.10
2018-07-30T10:01:32.380Z,42.10
2018-07-30T10:04:01.603Z,41.50
2018-07-30T10:06:30.283Z,41.10
2018-07-30T10:08:59.047Z,40.90
2018-07-30T10:11:32.191Z,41.10
2018-07-30T10:14:00.807Z,41.10
2018-07-30T10:21:25.764Z,41.50
2018-07-30T10:23:54.241Z,41.60
2018-07-30T10:26:22.818Z,41.90
2018-07-30T10:28:51.370Z,42.80
2018-07-30T10:31:19.880Z,42.80
2018-07-30T10:33:48.594Z,43.40
2018-07-30T10:36:17.674Z,43.80
2018-07-30T10:38:46.203Z,43.80
2018-07-30T10:41:14.710Z,43.70
2018-07-30T10:43:43.270Z,43.80
2018-07-30T10:46:11.871Z,43.70
2018-07-30T10:48:40.398Z,43.10
2018-07-30T10:51:08.956Z,43.00
2018-07-30T10:56:05.799Z,44.30
2018-07-30T10:58:34.358Z,44.90
2018-07-30T11:01:03.002Z,45.70
2018-07-30T11:03:31.446Z,46.70
2018-07-30T11:05:59.950Z,47.20
2018-07-30T11:08:28.487Z,47.60
2018-07-30T11:10:57.037Z,48.30
2018-07-30T11:13:26.160Z,48.00
2018-07-30T11:15:54.741Z,47.10
2018-07-30T11:18:23.322Z,46.90
2018-07-30T11:20:52.332Z,46.60
2018-07-30T11:32:18.741Z,45.60
2018-07-30T11:34:48.647Z,46.60
2018-07-30T11:40:25.969Z,47.20
2018-07-30T11:43:00.777Z,46.90
2018-07-30T11:46:11.905Z,46.80
2018-07-30T11:48:40.943Z,46.30
2018-07-30T11:51:09.529Z,46.20
2018-07-30T11:53:38.051Z,46.00
2018-07-30T11:56:06.629Z,46.10
2018-07-30T12:04:41.880Z,47.30
2018-07-30T12:07:11.045Z,46.30
2018-07-30T12:09:40.330Z,45.70
2018-07-30T12:12:11.119Z,46.10
2018-07-30T12:26:52.919Z,43.20
2018-07-30T12:29:21.601Z,43.00
2018-07-30T12:31:50.275Z,43.30
2018-07-30T12:34:19.061Z,44.20
2018-07-30T12:36:48.658Z,45.30
2018-07-30T12:39:17.316Z,46.10
2018-07-30T12:41:45.912Z,46.10
2018-07-30T12:44:14.645Z,44.70
2018-07-30T12:46:43.248Z,43.20
2018-07-30T12:49:11.803Z,42.10
2018-07-30T12:51:40.578Z,41.50
2018-07-30T12:54:09.215Z,41.40
2018-07-30T12:56:47.599Z,41.10
2018-07-30T13:29:49.439Z,42.10
2018-07-30T13:32:23.400Z,40.20
2018-07-30T13:47:13.459Z,39.50
2018-07-30T13:49:44.792Z,40.50
2018-07-30T13:52:17.201Z,40.60
2018-07-30T13:54:47.281Z,40.50
2018-07-30T14:09:23.108Z,39.20
2018-07-30T14:15:06.101Z,38.50
2018-07-30T14:17:35.663Z,38.50
2018-07-30T14:20:19.057Z,38.60
2018-07-30T14:23:02.980Z,38.60
2018-07-30T14:31:34.631Z,38.50
2018-07-30T14:34:19.411Z,38.40
2018-07-30T14:48:41.724Z,37.00
2018-07-30T14:56:49.263Z,37.00
2018-07-30T15:28:33.780Z,36.60
2018-07-30T15:31:20.260Z,36.50
2018-07-30T15:33:59.005Z,35.90
2018-07-30T15:38:56.483Z,35.40
2018-07-30T15:44:15.671Z,35.30
2018-07-30T15:47:04.463Z,35.30
2018-07-30T16:04:03.367Z,35.30
2018-07-30T16:12:40.552Z,35.00
2018-07-30T16:15:09.793Z,34.90
2018-07-30T16:17:38.347Z,34.70
2018-07-30T16:20:07.742Z,34.60
2018-07-30T16:22:36.347Z,34.50
2018-07-30T16:25:06.100Z,34.30
2018-07-30T16:27:34.646Z,34.30
2018-07-30T16:30:03.304Z,34.40
2018-07-30T16:32:37.626Z,34.50
2018-07-30T16:35:06.761Z,34.80
2018-07-30T16:37:35.461Z,35.20
2018-07-30T16:40:04.683Z,35.00
2018-07-30T16:42:33.422Z,35.20
2018-07-30T16:47:31.115Z,35.50
2018-07-30T16:49:59.645Z,35.40
2018-07-30T16:52:28.294Z,35.10
2018-07-30T16:54:57.020Z,34.90
2018-07-30T16:57:25.540Z,34.90
2018-07-30T16:59:54.128Z,34.80
2018-07-30T17:02:22.767Z,34.60
2018-07-30T17:04:51.362Z,34.50
2018-07-30T17:07:19.962Z,34.50
2018-07-30T17:09:48.539Z,34.70
2018-07-30T17:12:17.040Z,34.60
2018-07-30T17:17:13.771Z,34.20
2018-07-30T17:19:42.221Z,34.20
2018-07-30T17:22:11.111Z,34.20
2018-07-30T17:24:39.531Z,34.20
2018-07-30T17:29:36.683Z,34.20
2018-07-30T17:32:05.127Z,34.10
2018-07-30T17:34:33.585Z,33.90
2018-07-30T17:37:02.082Z,33.80
2018-07-30T17:39:30.552Z,33.80
2018-07-30T17:41:59.037Z,33.80
2018-07-30T17:44:27.458Z,33.80
2018-07-30T17:46:55.918Z,33.70
2018-07-30T17:49:24.375Z,33.60
2018-07-30T17:51:52.850Z,33.60
2018-07-30T17:54:21.656Z,33.50
2018-07-30T17:56:50.191Z,33.40
2018-07-30T18:01:46.907Z,33.20
2018-07-30T18:04:15.405Z,33.10
2018-07-30T18:06:43.866Z,33.00
2018-07-30T18:09:12.368Z,32.90
2018-07-30T18:11:40.927Z,32.80
2018-07-30T18:14:09.551Z,32.80
2018-07-30T18:16:38.057Z,32.60
2018-07-30T18:19:07.109Z,32.60
2018-07-30T18:21:35.518Z,32.50
2018-07-30T18:24:03.975Z,32.40
2018-07-30T18:26:32.437Z,32.30
2018-07-30T18:29:00.893Z,32.20
2018-07-30T18:31:29.429Z,32.20
2018-07-30T18:33:57.905Z,32.10
2018-07-30T18:38:54.533Z,31.90
2018-07-30T18:41:23.023Z,31.80
2018-07-30T18:43:51.518Z,31.70
2018-07-30T18:48:48.169Z,31.50
2018-07-30T18:51:16.655Z,31.40
2018-07-30T18:53:45.185Z,31.30
2018-07-30T18:56:13.733Z,31.20
2018-07-30T18:58:43.144Z,30.90
2018-07-30T19:03:40.367Z,30.50
2018-07-30T19:06:09.015Z,30.20
2018-07-30T19:08:37.640Z,30.00
2018-07-30T19:13:34.414Z,29.50
2018-07-30T19:16:02.976Z,29.30
2018-07-30T19:18:31.418Z,29.10
2018-07-30T19:20:59.903Z,29.00
2018-07-30T19:23:28.359Z,28.70
2018-07-30T19:28:26.069Z,28.40
2018-07-30T19:30:54.579Z,28.30
2018-07-30T19:33:22.997Z,28.10
2018-07-30T19:38:20.437Z,27.90
2018-07-30T19:40:48.930Z,27.80
2018-07-30T19:43:17.383Z,27.70
2018-07-30T19:45:45.994Z,27.50
2018-07-30T19:48:14.469Z,27.40
2018-07-30T19:50:42.935Z,27.30
2018-07-30T19:53:12.471Z,27.10
2018-07-30T19:55:40.935Z,27.00
2018-07-30T19:58:09.604Z,26.80
2018-07-30T20:00:37.895Z,26.70
2018-07-30T20:03:06.393Z,26.50
2018-07-30T20:10:31.260Z,26.10
2018-07-30T20:13:00.437Z,26.00
2018-07-30T20:15:28.936Z,25.90
2018-07-30T20:17:58.365Z,25.80
2018-07-30T20:20:26.941Z,25.70
2018-07-30T20:22:55.403Z,25.70
2018-07-30T20:25:23.828Z,25.60
2018-07-30T20:27:52.298Z,25.50
2018-07-30T20:30:20.802Z,25.40
2018-07-30T20:32:49.295Z,25.30
2018-07-30T20:35:17.819Z,25.10
2018-07-30T20:37:46.351Z,24.90
2018-07-30T20:40:14.872Z,24.80
2018-07-30T20:42:43.402Z,24.70
2018-07-30T20:45:11.916Z,24.60
2018-07-30T20:47:40.345Z,24.50
2018-07-30T20:50:08.804Z,24.40
2018-07-30T20:52:37.301Z,24.30
2018-07-30T20:55:05.843Z,24.20
2018-07-30T20:57:34.431Z,24.20
2018-07-30T21:00:02.949Z,24.10
2018-07-30T21:02:31.555Z,24.10
2018-07-30T21:07:28.195Z,24.00
2018-07-30T21:09:56.731Z,23.90
2018-07-30T21:12:25.141Z,23.80
2018-07-30T21:14:53.637Z,23.80
2018-07-30T21:17:22.091Z,23.70
2018-07-30T21:19:50.597Z,23.60
2018-07-30T21:22:19.084Z,23.50
2018-07-30T21:24:47.538Z,23.40
2018-07-30T21:27:16.023Z,23.40
2018-07-30T21:29:44.445Z,23.30
2018-07-30T21:34:42.298Z,23.20
2018-07-30T21:37:10.840Z,23.10
2018-07-30T21:39:39.342Z,23.10
2018-07-30T21:42:07.836Z,23.00
2018-07-30T21:44:36.288Z,22.90
2018-07-30T21:47:04.944Z,22.80
2018-07-30T21:49:33.383Z,22.70
2018-07-30T21:52:01.874Z,22.60
2018-07-30T21:54:30.361Z,22.50
2018-07-30T21:56:58.794Z,22.40
2018-07-30T21:59:27.271Z,22.40
2018-07-30T22:01:55.760Z,22.40
2018-07-30T22:04:24.262Z,22.40
2018-07-30T22:06:52.823Z,22.30
2018-07-30T22:09:21.510Z,22.30
2018-07-30T22:11:50.123Z,22.30
2018-07-30T22:14:18.674Z,22.30
2018-07-30T22:16:47.498Z,22.20
2018-07-30T22:19:16.006Z,22.10
2018-07-30T22:21:44.598Z,22.00
2018-07-30T22:24:13.193Z,22.00
2018-07-30T22:26:41.770Z,21.90
2018-07-30T22:29:10.290Z,21.90
2018-07-30T22:31:38.895Z,21.70
2018-07-30T22:36:35.535Z,21.50
2018-07-30T22:39:06.095Z,21.40
2018-07-30T22:41:34.537Z,21.40
2018-07-30T22:44:03.028Z,21.30
2018-07-30T22:46:31.823Z,21.30
2018-07-30T22:49:00.387Z,21.30
2018-07-30T22:51:28.964Z,21.10
2018-07-30T22:53:57.669Z,21.10
2018-07-30T22:56:26.274Z,21.00
2018-07-30T22:58:54.879Z,20.90
2018-07-30T23:01:23.419Z,20.90
2018-07-30T23:08:48.184Z,20.90
2018-07-30T23:11:16.594Z,20.80
2018-07-30T23:13:44.994Z,20.70
2018-07-30T23:16:13.441Z,20.60
2018-07-30T23:18:41.964Z,20.60
2018-07-30T23:21:10.488Z,20.50
2018-07-30T23:23:38.951Z,20.40
2018-07-30T23:26:07.420Z,20.40
2018-07-30T23:28:35.873Z,20.30
2018-07-30T23:31:04.292Z,20.20
2018-07-30T23:33:32.766Z,20.20
2018-07-30T23:38:29.322Z,20.10
2018-07-30T23:40:57.750Z,20.00
2018-07-30T23:43:26.158Z,20.10
2018-07-30T23:45:54.568Z,20.00
2018-07-30T23:48:23.026Z,20.00
2018-07-30T23:50:51.426Z,20.00
2018-07-30T23:53:19.880Z,19.90
2018-07-30T23:58:16.538Z,19.90
